createdAt,value
2018-08-17T00:00:57.259Z,19.50
2018-08-17T00:03:25.541Z,19.46
2018-08-17T00:05:53.853Z,19.35
2018-08-17T00:08:22.265Z,19.38
2018-08-17T00:10:50.570Z,19.36
2018-08-17T00:13:18.931Z,19.31
2018-08-17T00:15:48.299Z,19.35
2018-08-17T00:18:16.704Z,19.33
2018-08-17T00:20:45.021Z,19.39
2018-08-17T00:23:14.351Z,19.28
2018-08-17T00:25:42.678Z,19.23
2018-08-17T00:28:11.021Z,19.26
2018-08-17T00:30:39.317Z,19.29
2018-08-17T00:33:07.649Z,19.19
2018-08-17T00:35:35.949Z,19.24
2018-08-17T00:38:04.349Z,19.32
2018-08-17T00:40:33.722Z,19.35
2018-08-17T00:43:04.054Z,19.44
2018-08-17T00:45:33.445Z,19.49
2018-08-17T00:48:01.826Z,19.48
2018-08-17T00:50:30.119Z,19.46
2018-08-17T00:52:58.425Z,19.40
2018-08-17T00:55:26.750Z,19.32
2018-08-17T00:57:54.993Z,19.27
2018-08-17T01:00:23.328Z,19.20
2018-08-17T01:02:51.646Z,19.13
2018-08-17T01:05:19.977Z,19.04
2018-08-17T01:07:48.245Z,18.98
2018-08-17T01:10:17.577Z,18.82
2018-08-17T01:12:45.856Z,18.81
2018-08-17T01:15:14.166Z,18.73
2018-08-17T01:17:42.674Z,18.75
2018-08-17T01:20:12.943Z,18.76
2018-08-17T01:22:41.788Z,18.79
2018-08-17T01:25:10.293Z,18.75
2018-08-17T01:27:39.644Z,18.73
2018-08-17T01:30:08.795Z,18.69
2018-08-17T01:32:37.105Z,18.70
2018-08-17T01:35:06.689Z,18.75
2018-08-17T01:37:35.045Z,18.61
2018-08-17T01:40:03.369Z,18.73
2018-08-17T01:42:31.669Z,18.63
2018-08-17T01:44:59.997Z,18.64
2018-08-17T01:47:28.617Z,18.59
2018-08-17T01:49:56.906Z,18.63
2018-08-17T01:52:25.189Z,18.60
2018-08-17T01:54:53.507Z,18.60
2018-08-17T01:57:22.903Z,18.59
2018-08-17T01:59:52.198Z,18.57
2018-08-17T02:02:20.538Z,18.63
2018-08-17T02:04:49.851Z,18.59
2018-08-17T02:07:18.169Z,18.55
2018-08-17T02:09:46.449Z,18.39
2018-08-17T02:12:14.797Z,18.42
2018-08-17T02:14:43.129Z,18.40
2018-08-17T02:17:11.382Z,18.33
2018-08-17T02:19:39.672Z,18.39
2018-08-17T02:22:08.010Z,18.35
2018-08-17T02:24:37.306Z,18.27
2018-08-17T02:27:06.674Z,18.29
2018-08-17T02:29:34.946Z,18.19
2018-08-17T02:32:03.261Z,18.26
2018-08-17T02:34:33.356Z,18.29
2018-08-17T02:37:01.697Z,18.25
2018-08-17T02:39:29.978Z,18.14
2018-08-17T02:41:58.491Z,18.07
2018-08-17T02:44:27.060Z,18.02
2018-08-17T02:46:55.411Z,18.05
2018-08-17T02:49:24.005Z,18.02
2018-08-17T02:51:52.285Z,18.05
2018-08-17T02:54:20.590Z,18.08
2018-08-17T02:56:48.870Z,18.11
2018-08-17T02:59:17.162Z,18.09
2018-08-17T03:01:45.429Z,18.09
2018-08-17T03:04:13.758Z,18.02
2018-08-17T03:06:42.073Z,17.98
2018-08-17T03:09:11.537Z,17.97
2018-08-17T03:11:39.929Z,17.96
2018-08-17T03:14:08.542Z,17.94
2018-08-17T03:16:36.833Z,17.94
2018-08-17T03:19:05.182Z,17.92
2018-08-17T03:21:33.538Z,17.93
2018-08-17T03:24:03.904Z,17.88
2018-08-17T03:26:32.182Z,17.88
2018-08-17T03:29:01.605Z,17.91
2018-08-17T03:31:29.883Z,17.83
2018-08-17T03:33:58.197Z,17.81
2018-08-17T03:36:26.484Z,17.82
2018-08-17T03:38:54.774Z,17.81
2018-08-17T03:41:23.101Z,17.81
2018-08-17T03:43:51.461Z,17.78
2018-08-17T03:46:19.887Z,17.77
2018-08-17T03:48:49.217Z,17.74
2018-08-17T03:51:17.538Z,17.79
2018-08-17T03:53:45.846Z,17.80
2018-08-17T03:56:14.162Z,17.82
2018-08-17T03:58:42.507Z,17.89
2018-08-17T04:01:10.851Z,17.91
2018-08-17T04:03:39.141Z,17.89
2018-08-17T04:06:07.432Z,17.90
2018-08-17T04:08:35.706Z,17.97
2018-08-17T04:11:04.009Z,17.95
2018-08-17T04:13:32.297Z,17.97
2018-08-17T04:16:00.596Z,17.97
2018-08-17T04:18:28.914Z,17.98
2018-08-17T04:20:57.209Z,17.96
2018-08-17T04:23:25.485Z,17.99
2018-08-17T04:25:53.825Z,17.98
2018-08-17T04:28:22.150Z,17.92
2018-08-17T04:30:50.457Z,17.99
2018-08-17T04:33:18.745Z,18.05
2018-08-17T04:35:47.478Z,18.04
2018-08-17T04:38:15.733Z,18.21
2018-08-17T04:40:44.009Z,18.25
2018-08-17T04:43:12.299Z,18.52
2018-08-17T04:45:40.548Z,18.51
2018-08-17T04:48:08.867Z,18.66
2018-08-17T04:50:37.121Z,18.80
2018-08-17T04:53:05.412Z,18.83
2018-08-17T04:55:33.686Z,19.01
2018-08-17T04:58:03.042Z,19.07
2018-08-17T05:00:31.301Z,19.18
2018-08-17T05:02:59.596Z,19.09
2018-08-17T05:05:27.857Z,19.02
2018-08-17T05:07:56.148Z,19.07
2018-08-17T05:10:24.433Z,19.01
2018-08-17T05:12:52.701Z,18.92
2018-08-17T05:15:20.961Z,18.92
2018-08-17T05:17:49.271Z,18.98
2018-08-17T05:20:17.529Z,19.18
2018-08-17T05:22:45.882Z,19.28
2018-08-17T05:25:14.132Z,19.27
2018-08-17T05:27:42.400Z,19.32
2018-08-17T05:30:10.664Z,19.24
2018-08-17T05:32:39.013Z,19.23
2018-08-17T05:35:07.696Z,19.24
2018-08-17T05:37:36.183Z,19.46
2018-08-17T05:40:05.153Z,19.53
2018-08-17T05:42:33.417Z,19.47
2018-08-17T05:45:01.795Z,19.25
2018-08-17T05:47:30.056Z,19.41
2018-08-17T05:49:58.354Z,19.74
2018-08-17T05:52:26.621Z,19.73
2018-08-17T05:54:54.889Z,19.74
2018-08-17T05:57:23.184Z,19.81
2018-08-17T05:59:51.474Z,19.91
2018-08-17T06:02:19.763Z,20.09
2018-08-17T06:04:49.066Z,20.28
2018-08-17T06:07:17.340Z,20.34
2018-08-17T06:09:45.616Z,20.42
2018-08-17T06:12:13.877Z,20.44
2018-08-17T06:14:42.142Z,20.69
2018-08-17T06:17:10.430Z,20.51
2018-08-17T06:19:38.849Z,20.66
2018-08-17T06:22:07.136Z,20.91
2018-08-17T06:24:35.446Z,21.06
2018-08-17T06:27:03.744Z,21.14
2018-08-17T06:29:31.972Z,21.14
2018-08-17T06:32:00.273Z,21.41
2018-08-17T06:34:28.547Z,20.89
2018-08-17T06:36:56.837Z,21.36
2018-08-17T06:39:25.090Z,21.37
2018-08-17T06:41:53.509Z,21.31
2018-08-17T06:44:21.756Z,21.46
2018-08-17T06:46:50.042Z,21.53
2018-08-17T06:49:18.358Z,21.66
2018-08-17T06:51:46.625Z,22.05
2018-08-17T06:54:14.873Z,22.00
2018-08-17T06:56:43.173Z,22.12
2018-08-17T06:59:11.437Z,22.38
2018-08-17T07:01:40.765Z,22.59
2018-08-17T07:04:09.065Z,22.73
2018-08-17T07:06:37.346Z,22.56
2018-08-17T07:09:07.688Z,22.72
2018-08-17T07:11:35.929Z,23.07
2018-08-17T07:14:04.175Z,23.31
2018-08-17T07:16:32.496Z,23.53
2018-08-17T07:19:00.834Z,23.19
2018-08-17T07:21:29.105Z,22.31
2018-08-17T07:23:57.760Z,22.13
2018-08-17T07:26:26.205Z,22.08
2018-08-17T07:28:54.473Z,22.02
2018-08-17T07:31:22.730Z,22.42
2018-08-17T07:33:51.029Z,22.47
2018-08-17T07:36:19.370Z,22.50
2018-08-17T07:38:47.710Z,22.66
2018-08-17T07:41:17.092Z,22.36
2018-08-17T07:43:45.445Z,22.33
2018-08-17T07:46:13.777Z,22.43
2018-08-17T07:48:42.094Z,22.52
2018-08-17T07:51:12.349Z,22.32
2018-08-17T07:53:41.695Z,21.74
2018-08-17T07:56:09.970Z,21.90
2018-08-17T07:58:39.377Z,22.07
2018-08-17T08:01:08.727Z,22.36
2018-08-17T08:03:37.109Z,22.60
2018-08-17T08:06:05.469Z,22.65
2018-08-17T08:08:33.757Z,22.45
2018-08-17T08:11:02.104Z,22.50
2018-08-17T08:13:30.423Z,22.57
2018-08-17T08:15:59.772Z,22.76
2018-08-17T08:18:28.065Z,22.62
2018-08-17T08:20:56.374Z,22.86
2018-08-17T08:23:29.976Z,23.09
2018-08-17T08:25:59.637Z,23.34
2018-08-17T08:28:27.902Z,23.42
2018-08-17T08:30:56.249Z,23.39
2018-08-17T08:33:24.769Z,22.76
2018-08-17T08:35:55.170Z,22.77
2018-08-17T08:38:23.504Z,22.65
2018-08-17T08:40:51.839Z,22.74
2018-08-17T08:43:20.116Z,22.33
2018-08-17T08:45:49.509Z,22.67
2018-08-17T08:48:17.758Z,22.47
2018-08-17T08:50:46.085Z,22.83
2018-08-17T08:53:14.341Z,22.61
2018-08-17T08:55:42.636Z,22.70
2018-08-17T08:58:12.020Z,22.67
2018-08-17T09:00:41.318Z,22.70
2018-08-17T09:03:09.617Z,22.61
2018-08-17T09:05:39.069Z,22.68
2018-08-17T09:08:08.407Z,22.36
2018-08-17T09:10:36.660Z,22.02
2018-08-17T09:13:04.980Z,22.03
2018-08-17T09:15:34.349Z,22.00
2018-08-17T09:18:02.654Z,22.03
2018-08-17T09:20:30.923Z,22.15
2018-08-17T09:22:59.229Z,22.17
2018-08-17T09:25:27.633Z,21.64
2018-08-17T09:27:55.941Z,21.36
2018-08-17T09:30:24.666Z,21.13
2018-08-17T09:32:52.945Z,21.21
2018-08-17T09:35:21.203Z,21.03
2018-08-17T09:38:57.281Z,20.86
2018-08-17T09:41:25.536Z,20.53
2018-08-17T09:43:53.815Z,20.54
2018-08-17T09:46:22.092Z,20.45
2018-08-17T09:48:50.405Z,20.47
2018-08-17T09:51:18.711Z,20.32
2018-08-17T09:53:47.026Z,20.19
2018-08-17T09:56:15.305Z,20.21
2018-08-17T09:58:47.577Z,20.16
2018-08-17T10:01:21.105Z,20.38
2018-08-17T10:03:54.808Z,20.40
2018-08-17T10:06:28.409Z,20.41
2018-08-17T10:09:02.295Z,20.25
2018-08-17T10:11:35.062Z,19.98
2018-08-17T10:14:04.387Z,19.86
2018-08-17T10:16:34.662Z,19.88
2018-08-17T10:19:02.919Z,20.00
2018-08-17T10:21:39.171Z,19.97
2018-08-17T10:24:09.173Z,20.03
2018-08-17T10:26:37.497Z,20.28
2018-08-17T10:29:05.825Z,20.28
2018-08-17T10:31:34.109Z,20.38
2018-08-17T10:34:02.470Z,20.22
2018-08-17T10:36:32.710Z,20.28
2018-08-17T10:39:00.974Z,20.46
2018-08-17T10:41:29.237Z,20.48
2018-08-17T10:43:57.540Z,20.45
2018-08-17T10:46:26.837Z,19.98
2018-08-17T10:48:57.303Z,20.01
2018-08-17T10:51:25.590Z,20.01
2018-08-17T10:53:55.966Z,19.82
2018-08-17T10:56:24.227Z,19.99
2018-08-17T10:58:52.548Z,20.02
2018-08-17T11:01:20.855Z,20.23
2018-08-17T11:03:49.185Z,19.94
2018-08-17T11:06:19.618Z,19.87
2018-08-17T11:08:56.153Z,20.03
2018-08-17T11:11:24.465Z,20.03
2018-08-17T11:13:52.726Z,20.38
2018-08-17T11:16:21.057Z,20.70
2018-08-17T11:18:49.381Z,21.22
2018-08-17T11:21:17.738Z,21.44
2018-08-17T11:23:46.005Z,21.17
2018-08-17T11:26:14.341Z,21.06
2018-08-17T11:28:46.106Z,21.10
2018-08-17T11:31:14.453Z,21.15
2018-08-17T11:33:44.793Z,21.43
2018-08-17T11:36:13.064Z,21.92
2018-08-17T11:38:42.427Z,22.07
2018-08-17T11:41:11.959Z,21.49
2018-08-17T11:43:40.357Z,21.60
2018-08-17T11:46:08.649Z,22.13
2018-08-17T11:48:37.865Z,21.98
2018-08-17T11:51:07.354Z,21.66
2018-08-17T11:53:35.773Z,21.78
2018-08-17T11:56:04.009Z,21.68
2018-08-17T11:58:32.292Z,21.77
2018-08-17T12:01:00.661Z,22.23
2018-08-17T12:03:34.581Z,22.52
2018-08-17T12:06:02.863Z,22.55
2018-08-17T12:08:31.190Z,22.87
2018-08-17T12:11:04.649Z,22.76
2018-08-17T12:13:39.057Z,23.10
2018-08-17T12:16:10.785Z,23.72
2018-08-17T12:18:39.136Z,23.43
2018-08-17T12:21:07.405Z,23.66
2018-08-17T12:23:36.705Z,23.38
2018-08-17T12:26:05.018Z,23.45
2018-08-17T12:28:33.324Z,23.61
2018-08-17T12:31:01.573Z,23.12
2018-08-17T12:33:29.923Z,22.70
2018-08-17T12:35:58.215Z,22.75
2018-08-17T12:38:27.497Z,22.92
2018-08-17T12:40:56.849Z,23.11
2018-08-17T12:43:33.708Z,23.10
2018-08-17T12:46:01.998Z,22.91
2018-08-17T12:48:30.253Z,23.28
2018-08-17T12:51:04.510Z,24.37
2018-08-17T12:53:33.769Z,23.67
2018-08-17T12:56:02.078Z,23.84
2018-08-17T12:58:30.398Z,23.16
2018-08-17T13:00:58.708Z,23.23
2018-08-17T13:03:26.991Z,23.17
2018-08-17T13:05:55.281Z,23.08
2018-08-17T13:08:23.533Z,22.80
2018-08-17T13:10:53.034Z,22.15
2018-08-17T13:13:21.224Z,21.89
2018-08-17T13:15:53.667Z,21.62
2018-08-17T13:18:21.937Z,21.62
2018-08-17T13:20:51.533Z,21.40
2018-08-17T13:23:19.917Z,21.34
2018-08-17T13:25:48.206Z,21.21
2018-08-17T13:28:20.194Z,20.75
2018-08-17T13:30:48.481Z,20.74
2018-08-17T13:33:20.605Z,20.75
2018-08-17T13:35:48.936Z,21.26
2018-08-17T13:38:18.210Z,21.19
2018-08-17T13:40:46.509Z,21.34
2018-08-17T13:43:14.780Z,21.51
2018-08-17T13:45:43.070Z,21.40
2018-08-17T13:48:11.363Z,21.26
2018-08-17T13:50:41.750Z,20.96
2018-08-17T13:53:12.057Z,21.37
2018-08-17T13:55:40.325Z,21.73
2018-08-17T13:58:08.656Z,21.78
2018-08-17T14:00:36.943Z,21.44
2018-08-17T14:03:05.226Z,21.51
2018-08-17T14:05:34.553Z,21.73
2018-08-17T14:08:02.861Z,21.87
2018-08-17T14:10:31.145Z,22.03
2018-08-17T14:12:59.425Z,22.48
2018-08-17T14:15:27.698Z,23.72
2018-08-17T14:17:55.981Z,24.71
2018-08-17T14:20:24.253Z,24.47
2018-08-17T14:22:53.524Z,24.10
2018-08-17T14:25:21.800Z,24.20
2018-08-17T14:27:50.078Z,24.07
2018-08-17T14:30:18.861Z,24.24
2018-08-17T14:32:47.158Z,24.21
2018-08-17T14:35:15.707Z,23.75
2018-08-17T14:37:43.997Z,24.16
2018-08-17T14:40:14.651Z,23.64
2018-08-17T14:42:42.909Z,22.76
2018-08-17T14:45:13.279Z,22.94
2018-08-17T14:47:41.571Z,23.37
2018-08-17T14:50:12.300Z,23.98
2018-08-17T14:52:40.686Z,23.97
2018-08-17T14:55:09.562Z,23.45
2018-08-17T14:57:37.831Z,24.43
2018-08-17T15:00:09.061Z,25.05
2018-08-17T15:02:37.665Z,25.95
2018-08-17T15:05:07.361Z,25.36
2018-08-17T15:07:39.191Z,24.84
2018-08-17T15:10:11.625Z,25.19
2018-08-17T15:12:41.906Z,25.86
2018-08-17T15:15:11.054Z,25.43
2018-08-17T15:17:39.321Z,25.24
2018-08-17T15:20:09.441Z,24.93
2018-08-17T15:22:37.761Z,25.11
2018-08-17T15:25:06.317Z,25.43
2018-08-17T15:27:34.594Z,25.25
2018-08-17T15:30:04.270Z,25.66
2018-08-17T15:32:32.564Z,26.56
2018-08-17T15:35:00.842Z,27.42
2018-08-17T15:37:31.170Z,26.82
2018-08-17T15:39:59.434Z,27.38
2018-08-17T15:42:28.729Z,28.83
2018-08-17T15:44:56.993Z,33.03
2018-08-17T15:47:25.311Z,35.73
2018-08-17T15:50:05.239Z,37.80
2018-08-17T15:52:34.612Z,38.34
2018-08-17T15:55:02.869Z,38.29
2018-08-17T15:57:31.232Z,34.69
2018-08-17T16:00:00.553Z,32.29
2018-08-17T16:02:28.889Z,31.73
2018-08-17T16:04:57.185Z,33.55
2018-08-17T16:07:25.478Z,32.92
2018-08-17T16:09:53.765Z,35.27
2018-08-17T16:12:22.154Z,30.96
2018-08-17T16:14:50.422Z,32.15
2018-08-17T16:17:18.713Z,34.57
2018-08-17T16:19:48.134Z,36.35
2018-08-17T16:22:17.397Z,37.67
2018-08-17T16:24:45.693Z,37.23
2018-08-17T16:27:14.082Z,35.89
2018-08-17T16:29:42.374Z,34.02
2018-08-17T16:32:10.685Z,35.57
2018-08-17T16:34:39.011Z,33.67
2018-08-17T16:37:07.305Z,31.78
2018-08-17T16:39:40.045Z,30.03
2018-08-17T16:42:08.333Z,31.61
2018-08-17T16:44:36.651Z,33.47
2018-08-17T16:47:05.026Z,30.82
2018-08-17T16:49:33.341Z,30.13
2018-08-17T16:52:01.598Z,30.37
2018-08-17T16:54:29.971Z,29.85
2018-08-17T16:56:58.267Z,27.14
2018-08-17T16:59:26.558Z,25.29
2018-08-17T17:01:54.900Z,24.83
2018-08-17T17:04:23.267Z,23.58
2018-08-17T17:06:51.530Z,23.31
2018-08-17T17:09:20.881Z,23.12
2018-08-17T17:11:50.265Z,22.99
2018-08-17T17:14:18.650Z,22.70
2018-08-17T17:16:47.777Z,22.19
2018-08-17T17:19:22.515Z,22.21
2018-08-17T17:21:51.673Z,22.26
2018-08-17T17:24:20.431Z,22.13
2018-08-17T17:26:48.709Z,21.94
2018-08-17T17:29:16.967Z,22.10
2018-08-17T17:31:48.773Z,22.06
2018-08-17T17:34:18.041Z,22.00
2018-08-17T17:36:46.343Z,21.99
2018-08-17T17:39:15.897Z,21.83
2018-08-17T17:41:44.450Z,21.78
2018-08-17T17:44:12.764Z,21.51
2018-08-17T17:46:41.518Z,21.65
2018-08-17T17:49:10.865Z,21.47
2018-08-17T17:51:41.290Z,21.46
2018-08-17T17:54:10.693Z,21.18
2018-08-17T17:56:39.015Z,20.94
2018-08-17T17:59:14.872Z,20.95
2018-08-17T18:01:43.165Z,20.78
2018-08-17T18:04:11.512Z,20.63
2018-08-17T18:06:39.790Z,20.51
2018-08-17T18:09:08.152Z,20.41
2018-08-17T18:11:37.652Z,20.36
2018-08-17T18:14:05.941Z,20.24
2018-08-17T18:16:34.256Z,20.28
2018-08-17T18:19:02.572Z,20.21
2018-08-17T18:21:32.936Z,20.25
2018-08-17T18:24:09.650Z,20.19
2018-08-17T18:26:37.991Z,20.04
2018-08-17T18:29:06.381Z,19.98
2018-08-17T18:31:34.645Z,19.87
2018-08-17T18:34:03.060Z,19.84
2018-08-17T18:36:31.345Z,19.76
2018-08-17T18:38:59.771Z,19.65
2018-08-17T18:41:28.099Z,19.67
2018-08-17T18:43:58.412Z,19.60
2018-08-17T18:46:26.679Z,19.53
2018-08-17T18:48:54.982Z,19.41
2018-08-17T18:51:23.273Z,19.35
2018-08-17T18:53:51.608Z,19.33
2018-08-17T18:56:20.897Z,19.29
2018-08-17T18:58:49.234Z,19.21
2018-08-17T19:01:20.821Z,19.23
2018-08-17T19:03:54.531Z,19.21
2018-08-17T19:06:22.804Z,19.17
2018-08-17T19:08:51.101Z,19.02
2018-08-17T19:11:20.385Z,19.02
2018-08-17T19:13:49.722Z,18.95
2018-08-17T19:16:19.133Z,18.92
2018-08-17T19:18:47.413Z,18.87
2018-08-17T19:21:15.777Z,18.72
2018-08-17T19:23:44.069Z,18.62
2018-08-17T19:26:13.516Z,18.54
2018-08-17T19:28:41.810Z,18.50
2018-08-17T19:31:20.122Z,18.53
2018-08-17T19:33:50.337Z,18.45
2018-08-17T19:36:19.721Z,18.33
2018-08-17T19:38:53.054Z,18.29
2018-08-17T19:41:23.579Z,18.27
2018-08-17T19:43:53.077Z,18.25
2018-08-17T19:46:21.964Z,18.24
2018-08-17T19:48:50.607Z,18.19
2018-08-17T19:51:22.345Z,18.21
2018-08-17T19:53:50.642Z,18.14
2018-08-17T19:56:18.949Z,18.13
2018-08-17T19:58:47.249Z,18.01
2018-08-17T20:01:15.621Z,17.94
2018-08-17T20:03:44.982Z,17.98
2018-08-17T20:06:13.329Z,17.98
2018-08-17T20:08:41.619Z,17.88
2018-08-17T20:11:09.938Z,17.90
2018-08-17T20:13:38.217Z,17.94
2018-08-17T20:16:21.332Z,17.84
2018-08-17T20:18:49.934Z,17.86
2018-08-17T20:21:22.473Z,17.77
2018-08-17T20:23:50.751Z,17.74
2018-08-17T20:26:19.282Z,17.68
2018-08-17T20:28:48.363Z,17.72
2018-08-17T20:31:16.699Z,17.58
2018-08-17T20:33:46.037Z,17.56
2018-08-17T20:36:18.102Z,17.58
2018-08-17T20:38:46.506Z,17.56
2018-08-17T20:41:18.566Z,17.49
2018-08-17T20:43:47.153Z,17.50
2018-08-17T20:46:15.472Z,17.50
2018-08-17T20:48:50.970Z,17.50
2018-08-17T20:51:25.308Z,17.54
2018-08-17T20:53:58.027Z,17.51
2018-08-17T20:56:26.817Z,17.40
2018-08-17T20:58:55.430Z,17.44
2018-08-17T21:01:23.925Z,17.34
2018-08-17T21:03:54.265Z,17.34
2018-08-17T21:06:22.589Z,17.15
2018-08-17T21:08:52.921Z,17.10
2018-08-17T21:11:24.281Z,17.11
2018-08-17T21:13:53.602Z,17.10
2018-08-17T21:16:21.942Z,17.05
2018-08-17T21:18:50.249Z,17.00
2018-08-17T21:21:20.563Z,16.94
2018-08-17T21:23:49.947Z,16.97
2018-08-17T21:26:18.265Z,16.95
2018-08-17T21:28:46.617Z,17.11
2018-08-17T21:31:14.914Z,16.92
2018-08-17T21:33:43.230Z,16.77
2018-08-17T21:36:12.660Z,16.72
2018-08-17T21:38:40.974Z,16.69
2018-08-17T21:41:09.955Z,16.71
2018-08-17T21:43:38.271Z,16.65
2018-08-17T21:46:07.121Z,16.60
2018-08-17T21:48:37.809Z,16.57
2018-08-17T21:51:06.749Z,16.46
2018-08-17T21:53:35.002Z,16.53
2018-08-17T21:56:03.334Z,16.50
2018-08-17T21:58:31.598Z,16.44
2018-08-17T22:00:59.889Z,16.36
2018-08-17T22:03:32.441Z,16.39
2018-08-17T22:06:00.809Z,16.35
2018-08-17T22:08:29.098Z,16.22
2018-08-17T22:10:58.481Z,16.21
2018-08-17T22:13:31.243Z,16.18
2018-08-17T22:16:00.061Z,16.18
2018-08-17T22:18:28.764Z,16.18
2018-08-17T22:20:57.302Z,16.10
2018-08-17T22:23:26.626Z,16.06
2018-08-17T22:25:54.897Z,15.99
2018-08-17T22:28:24.289Z,15.98
2018-08-17T22:30:52.545Z,15.89
2018-08-17T22:33:20.872Z,15.84
2018-08-17T22:35:49.136Z,15.76
2018-08-17T22:38:17.438Z,15.79
2018-08-17T22:40:45.693Z,15.74
2018-08-17T22:43:14.057Z,15.76
2018-08-17T22:45:42.381Z,15.77
2018-08-17T22:48:10.714Z,15.75
2018-08-17T22:50:38.973Z,15.76
2018-08-17T22:53:07.337Z,15.73
2018-08-17T22:55:35.641Z,15.68
2018-08-17T22:58:03.920Z,15.69
2018-08-17T23:00:33.420Z,15.78
2018-08-17T23:03:02.445Z,15.80
2018-08-17T23:05:33.161Z,15.78
2018-08-17T23:08:01.409Z,15.70
2018-08-17T23:10:30.947Z,15.70
2018-08-17T23:12:59.264Z,15.69
2018-08-17T23:15:27.633Z,15.72
2018-08-17T23:17:59.965Z,15.68
2018-08-17T23:20:33.494Z,15.68
2018-08-17T23:23:02.546Z,15.60
2018-08-17T23:25:31.138Z,15.61
2018-08-17T23:27:59.487Z,15.52
2018-08-17T23:30:29.862Z,15.48
2018-08-17T23:32:58.201Z,15.52
2018-08-17T23:35:28.533Z,15.54
2018-08-17T23:37:56.849Z,15.53
2018-08-17T23:40:25.190Z,15.52
2018-08-17T23:42:53.429Z,15.50
2018-08-17T23:45:21.748Z,15.55
2018-08-17T23:47:50.025Z,15.56
2018-08-17T23:50:18.518Z,15.52
2018-08-17T23:52:47.834Z,15.47
2018-08-17T23:55:20.614Z,15.35
2018-08-17T23:57:52.110Z,15.33
